PDT,Max TemperatureF,Mean TemperatureF,Min TemperatureF,Max Dew PointF,MeanDew PointF,Min DewpointF,Max Humidity, Mean Humidity, Min Humidity, Max Sea Level PressureIn, Mean Sea Level PressureIn, Min Sea Level PressureIn, Max VisibilityMiles, Mean VisibilityMiles, Min VisibilityMiles, Max Wind SpeedMPH, Mean Wind SpeedMPH, Max Gust SpeedMPH,PrecipitationIn, CloudCover, Events, WindDirDegrees
2011-9-1,66,55,43,50,46,37,83,68,56,30.18,30.16,30.13,10,10,9,31,13,38,0.00,0,,5
2011-9-2,64,57,50,52,47,45,83,69,52,30.19,30.17,30.12,10,9,5,30,14,39,0.00,0,,360
2011-9-3,73,59,45,52,47,41,86,65,41,30.09,29.96,29.87,10,8,2,25,8,29,0.00,0,,349
2011-9-4,54,50,46,46,43,39,86,77,71,29.98,29.96,29.93,10,6,0,12,6,,0.00,5,,284
2011-9-5,57,54,50,48,46,45,83,79,72,30.07,30.01,29.98,10,6,1,14,6,,0.00,7,,342
2011-9-6,63,56,48,50,47,45,83,76,65,30.12,30.10,30.06,10,7,1,25,10,33,0.00,5,,347
2011-9-7,61,55,48,52,47,45,89,77,64,30.09,30.08,30.06,10,5,0,16,7,23,0.00,3,,317
2011-9-8,66,61,55,55,52,48,86,77,67,30.22,30.19,30.16,10,8,2,20,11,24,0.00,7,,357
2011-9-9,61,56,50,50,48,46,83,78,67,30.23,30.17,30.05,10,6,0,28,13,36,0.00,6,,347
2011-9-10,66,56,46,52,46,43,86,77,56,30.04,29.95,29.82,10,4,0,24,10,29,0.00,5,,323
2011-9-11,61,57,52,52,48,46,83,79,72,30.02,29.96,29.86,10,8,1,10,7,,0.00,8,,229
2011-9-12,63,59,55,54,52,48,83,78,72,30.16,30.13,30.08,10,10,10,9,5,8,0.00,8,,144
2011-9-13,63,58,52,54,52,48,86,79,72,30.19,30.17,30.14,10,10,6,15,6,,0.00,8,,352
2011-9-14,64,57,50,52,48,45,89,75,65,30.14,30.10,30.05,10,7,0,16,8,18,0.00,6,,327
2011-9-15,66,58,50,52,50,46,89,75,58,30.09,30.07,30.06,10,8,0,18,7,,0.00,4,,311
2011-9-16,66,57,48,54,48,43,86,73,52,30.09,30.06,30.04,10,10,10,15,7,22,0.00,0,,81
2011-9-17,68,57,46,52,44,37,77,65,48,30.17,30.15,30.13,10,10,10,14,9,15,0.00,0,,177
2011-9-18,68,60,52,57,52,45,90,74,63,30.23,30.20,30.18,10,9,0,12,7,,0.00,4,,191
2011-9-19,70,61,52,57,54,52,86,76,58,30.20,30.18,30.12,10,7,1,24,9,31,0.00,6,,1
2011-9-20,72,59,46,54,49,43,86,73,55,30.13,30.10,30.08,10,6,0,15,5,18,0.00,3,,332
2011-9-21,66,56,46,55,48,39,86,76,58,30.07,30.05,30.03,10,9,0,13,6,18,0.00,2,,345
2011-9-22,73,64,54,63,54,48,86,76,66,30.11,30.08,30.05,10,9,3,12,6,,0.00,5,,163
2011-9-23,68,63,57,59,58,55,86,80,73,30.11,30.08,30.01,10,8,1,10,6,,0.00,7,,171
2011-9-24,70,63,55,55,54,54,84,76,56,29.99,29.88,29.76,10,10,8,28,11,39,0.04,7,,184
2011-9-25,66,60,54,54,51,48,83,70,58,30.03,29.93,29.82,10,10,3,20,13,25,0.01,6,,204
2011-9-26,75,65,54,48,46,45,77,56,38,30.05,30.01,29.99,10,10,10,25,11,39,0.00,6,,176
2011-9-27,66,60,54,55,52,45,86,71,48,30.27,30.18,30.06,10,9,3,15,8,18,0.15,7,,222
2011-9-28,72,59,45,54,47,39,86,68,47,30.32,30.19,30.02,10,10,8,23,8,29,0.00,0,,11
2011-9-29,72,60,48,55,50,43,84,73,59,29.99,29.92,29.89,10,10,10,10,6,12,0.00,0,,147
2011-9-30,61,58,54,54,51,46,86,80,69,30.00,29.95,29.91,10,9,2,13,5,,0.00,8,,208